Time;durP1;ratioP1;P1;durP2;ratioP2;P2;SDS_P1;SDS_P2;PMS_P1;PMS_P2;Temp;Humidity;BMP_temperature;BMP_pressure;BME280_temperature;BME280_humidity;BME280_pressure;Samples;Min_cycle;Max_cycle;Signal;HPM_P1;HPM_P2
2022/06/12 00:01:03;;;;;;;5.85;5.38;;;;;;;16.49;100.00;63702.47;5025206;28;20401;-79
2022/06/12 00:03:32;;;;;;;5.93;4.82;;;;;;;16.50;100.00;63703.50;5023331;28;20218;-79
2022/06/12 00:06:00;;;;;;;5.15;4.85;;;;;;;16.52;100.00;63700.47;5024941;28;20214;-78
2022/06/12 00:08:38;;;;;;;5.47;4.97;;;;;;;16.50;100.00;63703.00;5024587;28;20198;-78
2022/06/12 00:11:07;;;;;;;5.97;5.38;;;;;;;16.47;100.00;63697.81;5025528;28;20256;-79
2022/06/12 00:13:36;;;;;;;5.47;5.07;;;;;;;16.51;100.00;63704.56;5026385;28;20202;-79
2022/06/12 00:16:04;;;;;;;6.43;5.03;;;;;;;16.42;100.00;63695.19;5031426;28;20238;-79
2022/06/12 00:18:31;;;;;;;5.97;5.07;;;;;;;16.47;100.00;63699.88;5032765;28;20233;-80
2022/06/12 00:23:44;;;;;;;8.98;6.30;;;;;;;16.46;100.00;63701.94;5027551;28;20442;-79
2022/06/12 00:26:13;;;;;;;5.80;5.40;;;;;;;16.45;100.00;63695.19;5028861;28;20218;-79
2022/06/12 00:28:40;;;;;;;5.50;5.10;;;;;;;16.39;100.00;63689.50;5029142;28;20191;-80
2022/06/12 00:31:07;;;;;;;5.85;5.35;;;;;;;16.46;100.00;63701.94;5027655;28;20234;-79
2022/06/12 00:33:34;;;;;;;6.10;5.65;;;;;;;16.44;100.00;63699.84;5028958;28;20197;-79
2022/06/12 00:36:02;;;;;;;7.63;5.65;;;;;;;16.39;100.00;63694.63;5026363;28;20229;-79
2022/06/12 00:38:29;;;;;;;5.95;5.55;;;;;;;16.46;100.00;63699.38;5028176;28;20198;-79
2022/06/12 00:40:57;;;;;;;5.45;5.05;;;;;;;16.48;100.00;63698.34;5024722;28;20569;-78
2022/06/12 00:43:27;;;;;;;5.68;5.28;;;;;;;16.48;100.00;63698.34;5028496;28;20200;-79
2022/06/12 00:45:59;;;;;;;5.57;5.18;;;;;;;16.50;100.00;63703.00;5027665;28;20268;-79
2022/06/12 00:48:28;;;;;;;5.65;5.15;;;;;;;16.50;100.00;63703.50;5027735;28;20197;-78
2022/06/12 00:51:01;;;;;;;5.95;4.47;;;;;;;16.58;100.00;63713.91;5027999;28;20226;-80
2022/06/12 00:53:33;;;;;;;5.82;5.20;;;;;;;16.54;100.00;63707.69;5027567;28;20250;-79
2022/06/12 00:56:09;;;;;;;8.18;5.78;;;;;;;16.48;100.00;63701.44;5026776;28;20241;-79
2022/06/12 00:58:48;;;;;;;5.85;5.38;;;;;;;16.48;100.00;63700.94;5026098;28;20241;-79
2022/06/12 01:01:21;;;;;;;5.72;5.22;;;;;;;16.44;100.00;63699.31;5026044;28;20210;-79
2022/06/12 01:06:37;;;;;;;6.22;5.70;;;;;;;16.38;100.00;63690.47;5024637;28;20999;-79
2022/06/12 01:09:12;;;;;;;6.25;5.57;;;;;;;16.31;100.00;63683.22;5023606;28;20507;-80
2022/06/12 01:11:44;;;;;;;6.68;6.05;;;;;;;16.29;100.00;63679.06;5010471;28;20199;-80
2022/06/12 01:14:14;;;;;;;5.90;5.25;;;;;;;16.20;100.00;63674.88;5011642;28;20214;-79
2022/06/12 01:16:45;;;;;;;6.93;6.38;;;;;;;16.26;100.00;63678.00;5025011;28;20264;-79
2022/06/12 01:19:21;;;;;;;8.20;6.63;;;;;;;16.29;100.00;63684.22;5029419;28;20285;-78
2022/06/12 01:22:34;;;;;;;6.38;5.78;;;;;;;16.20;100.00;63672.81;5029247;28;20198;-78
2022/06/12 01:25:22;;;;;;;8.20;6.43;;;;;;;16.25;100.00;63671.84;5027432;28;20226;-78
2022/06/12 01:28:31;;;;;;;6.82;5.55;;;;;;;16.17;100.00;63669.69;5028808;28;20218;-79
2022/06/12 01:31:07;;;;;;;7.05;6.35;;;;;;;16.22;100.00;63676.94;4987365;28;20443;-79
2022/06/12 01:33:43;;;;;;;6.75;6.07;;;;;;;16.19;100.00;63666.09;5021794;28;20194;-78
2022/06/12 01:36:16;;;;;;;7.20;6.45;;;;;;;16.22;100.00;63674.38;5020837;28;20244;-79
2022/06/12 01:38:50;;;;;;;6.95;6.40;;;;;;;16.18;100.00;63665.06;5028372;28;20198;-80
2022/06/12 01:41:26;;;;;;;6.95;6.35;;;;;;;16.24;100.00;63681.59;5027884;28;20198;-79
2022/06/12 01:44:04;;;;;;;6.00;5.60;;;;;;;16.22;100.00;63674.38;5019554;28;20499;-79
2022/06/12 01:46:42;;;;;;;5.90;5.50;;;;;;;16.27;100.00;63684.72;5030344;28;20210;-79
2022/06/12 01:49:15;;;;;;;5.60;5.20;;;;;;;16.25;100.00;63677.50;5034587;28;20253;-80
2022/06/12 01:51:50;;;;;;;5.40;5.00;;;;;;;16.39;100.00;63688.97;5035002;28;20409;-78
2022/06/12 01:54:24;;;;;;;5.55;5.15;;;;;;;16.40;100.00;63695.66;5023081;28;20264;-80
2022/06/12 01:56:58;;;;;;;5.78;5.28;;;;;;;16.41;100.00;63691.06;5011154;28;20235;-79
2022/06/12 01:59:33;;;;;;;5.90;5.50;;;;;;;16.51;100.00;63701.47;5008394;28;20231;-78
2022/06/12 02:02:08;;;;;;;5.22;4.82;;;;;;;16.56;100.00;63709.25;5025018;28;20220;-79
2022/06/12 02:04:40;;;;;;;5.07;4.70;;;;;;;16.67;100.00;63723.25;5026830;28;20542;-78
2022/06/12 02:07:14;;;;;;;6.00;5.53;;;;;;;16.68;100.00;63719.69;5009119;28;20199;-79
2022/06/12 02:09:45;;;;;;;5.57;5.18;;;;;;;16.66;100.00;63720.16;5010104;28;20227;-78
2022/06/12 02:15:05;;;;;;;6.60;6.10;;;;;;;16.63;100.00;63716.53;5028976;28;20233;-79
2022/06/12 02:17:38;;;;;;;6.85;5.63;;;;;;;16.56;100.00;63709.75;5027101;28;20392;-79
2022/06/12 02:20:10;;;;;;;5.45;4.95;;;;;;;16.52;100.00;63705.59;5025625;28;20223;-79
2022/06/12 02:22:43;;;;;;;5.93;5.35;;;;;;;16.60;100.00;63711.34;5027445;28;20203;-79
2022/06/12 02:25:14;;;;;;;5.47;4.93;;;;;;;16.54;100.00;63710.25;5028275;28;20564;-78
2022/06/12 02:27:46;;;;;;;8.18;6.22;;;;;;;16.46;100.00;63699.38;5027372;28;20226;-79
2022/06/12 02:30:18;;;;;;;6.25;5.72;;;;;;;16.39;100.00;63689.50;5028103;28;20447;-79
2022/06/12 02:32:52;;;;;;;5.95;5.53;;;;;;;16.39;100.00;63694.63;5028702;28;20199;-78
2022/06/12 02:35:24;;;;;;;5.85;5.47;;;;;;;16.31;100.00;63685.78;5027019;28;20534;-80
2022/06/12 02:37:56;;;;;;;5.55;5.15;;;;;;;16.29;100.00;63676.50;5025049;28;20218;-80
2022/06/12 02:40:26;;;;;;;5.63;5.22;;;;;;;16.35;100.00;63684.78;5027549;28;20252;-79
2022/06/12 02:42:57;;;;;;;6.50;5.97;;;;;;;16.36;100.00;63691.50;5029530;28;20206;-80
2022/06/12 02:45:29;;;;;;;5.93;5.53;;;;;;;16.35;100.00;63682.75;5026607;28;20599;-80
2022/06/12 02:47:57;;;;;;;6.25;5.68;;;;;;;16.19;100.00;63669.19;5022025;28;20206;-80
2022/06/12 02:50:28;;;;;;;6.45;6.05;;;;;;;16.03;100.00;63657.19;5032828;28;20268;-80
2022/06/12 02:53:02;;;;;;;6.35;5.85;;;;;;;16.06;100.00;63662.88;5025311;28;20191;-79
2022/06/12 02:55:38;;;;;;;6.10;5.57;;;;;;;16.05;100.00;63656.69;5024527;28;20272;-81
2022/06/12 02:58:16;;;;;;;6.80;6.20;;;;;;;16.05;100.00;63657.22;5026056;28;20206;-80
2022/06/12 03:00:50;;;;;;;5.88;5.38;;;;;;;16.04;100.00;63660.78;5025463;28;20229;-81
2022/06/12 03:03:25;;;;;;;6.18;5.68;;;;;;;16.09;100.00;63658.28;5026902;28;20190;-80
2022/06/12 03:05:57;;;;;;;6.25;5.72;;;;;;;16.04;100.00;63653.59;5021409;28;20221;-81
2022/06/12 03:08:28;;;;;;;6.53;5.68;;;;;;;16.02;100.00;63656.66;5026398;28;20225;-81
2022/06/12 03:10:59;;;;;;;6.05;5.65;;;;;;;16.05;100.00;63659.78;5021874;28;20218;-81
2022/06/12 03:13:29;;;;;;;8.05;6.13;;;;;;;16.10;100.00;63664.47;5025337;28;20197;-81
2022/06/12 03:16:20;;;;;;;7.20;6.60;;;;;;;16.07;100.00;63656.19;5029329;28;20241;-83
2022/06/12 03:18:55;;;;;;;7.15;6.15;;;;;;;16.11;100.00;63660.38;5020498;28;20208;-79
2022/06/12 03:21:36;;;;;;;6.00;5.60;;;;;;;15.98;100.00;63654.53;5033581;28;20249;-84
2022/06/12 03:24:21;;;;;;;7.50;6.13;;;;;;;15.91;100.00;63642.13;5030813;28;20209;-83
2022/06/12 03:27:02;;;;;;;6.22;5.75;;;;;;;15.68;100.00;63620.78;5030355;28;20190;-83
2022/06/12 03:29:37;;;;;;;5.65;5.25;;;;;;;15.99;100.00;63645.84;5028862;28;20229;-80
2022/06/12 03:32:15;;;;;;;5.72;5.32;;;;;;;16.05;100.00;63662.34;5025227;28;20252;-83
2022/06/12 03:34:51;;;;;;;6.85;6.35;;;;;;;16.00;100.00;63649.44;5028936;28;20217;-81
2022/06/12 03:37:28;;;;;;;6.05;5.55;;;;;;;16.07;100.00;63661.34;5031973;28;20226;-81
2022/06/12 03:40:01;;;;;;;5.75;5.35;;;;;;;16.12;100.00;63663.97;5029773;28;20245;-80
2022/06/12 03:42:35;;;;;;;6.43;6.03;;;;;;;16.17;100.00;63666.59;5029791;28;20214;-81
2022/06/12 03:45:06;;;;;;;5.85;5.38;;;;;;;16.19;100.00;63674.34;5027481;28;20415;-80
2022/06/12 03:47:43;;;;;;;5.90;5.55;;;;;;;16.27;100.00;63679.06;5030938;28;20191;-80
2022/06/12 03:50:16;;;;;;;5.45;5.05;;;;;;;16.41;100.00;63691.06;5019166;28;20539;-80
2022/06/12 03:52:50;;;;;;;5.78;5.18;;;;;;;16.46;100.00;63698.81;5029586;28;20195;-80
2022/06/12 03:57:50;;;;;;;5.40;5.03;;;;;;;16.53;100.00;63704.06;5029098;28;20247;-81
2022/06/12 03:58:20;;;;;;;6.63;5.88;;;;;;;16.61;100.00;63717.53;5009834;28;20225;-81
2022/06/12 04:00:50;;;;;;;6.55;4.78;;;;;;;16.71;100.00;63725.38;5031405;28;20345;-80
2022/06/12 04:03:22;;;;;;;5.35;4.95;;;;;;;16.76;100.00;63733.13;5029857;28;20190;-81
2022/06/12 04:05:53;;;;;;;5.40;5.10;;;;;;;16.84;100.00;63738.88;5029992;28;20229;-80
2022/06/12 04:08:30;;;;;;;5.43;4.90;;;;;;;16.97;100.00;63749.84;5029069;28;20274;-81
2022/06/12 04:10:58;;;;;;;4.82;4.53;;;;;;;16.99;100.00;63749.38;5032087;28;20228;-81
2022/06/12 04:13:26;;;;;;;5.25;4.70;;;;;;;17.10;100.00;63760.28;5029537;28;20194;-81
2022/06/12 04:15:56;;;;;;;5.38;4.88;;;;;;;17.12;100.00;63770.09;5032089;28;20249;-81
2022/06/12 04:18:25;;;;;;;4.45;4.20;;;;;;;17.06;100.00;63761.28;5029936;28;20222;-79
2022/06/12 04:20:57;;;;;;;5.20;4.78;;;;;;;17.04;100.00;63762.28;5033685;28;20221;-79
2022/06/12 04:23:36;;;;;;;6.53;4.50;;;;;;;16.89;100.00;63744.09;5034823;28;21567;-80
2022/06/12 04:26:18;;;;;;;5.82;5.43;;;;;;;16.64;100.00;63715.50;5031189;28;20289;-83
2022/06/12 04:28:47;;;;;;;6.53;5.30;;;;;;;16.71;100.00;63722.78;5033592;28;20202;-79
2022/06/12 04:31:16;;;;;;;6.93;6.25;;;;;;;16.76;100.00;63730.56;5031265;28;20446;-83
2022/06/12 04:34:02;;;;;;;5.90;5.50;;;;;;;16.76;100.00;63728.00;5027325;28;20228;-80
2022/06/12 04:36:31;;;;;;;6.32;5.72;;;;;;;16.74;100.00;63720.25;5029745;28;20280;-81
2022/06/12 04:38:58;;;;;;;6.13;5.72;;;;;;;16.74;100.00;63725.41;5030173;28;20194;-80
2022/06/12 04:41:29;;;;;;;5.78;5.28;;;;;;;16.79;100.00;63730.59;5030903;28;20213;-80
2022/06/12 04:43:55;;;;;;;7.32;6.70;;;;;;;16.72;100.00;63723.81;5028949;28;20541;-80
2022/06/12 04:46:23;;;;;;;7.05;6.55;;;;;;;16.76;100.00;63732.63;5032410;28;20214;-79
2022/06/12 04:48:54;;;;;;;7.03;6.53;;;;;;;16.70;100.00;63721.25;5031584;28;20533;-80
2022/06/12 04:51:21;;;;;;;6.45;5.80;;;;;;;16.65;100.00;63718.59;5028951;28;20251;-79
2022/06/12 04:53:50;;;;;;;7.40;6.63;;;;;;;16.70;100.00;63729.47;5032105;28;20201;-79
2022/06/12 04:56:19;;;;;;;6.57;5.97;;;;;;;16.82;100.00;63738.88;5033000;28;20237;-80
2022/06/12 04:58:47;;;;;;;6.40;6.00;;;;;;;16.80;100.00;63736.78;5027775;28;20268;-79
2022/06/12 05:01:14;;;;;;;5.75;5.35;;;;;;;16.84;100.00;63733.22;5034184;28;20271;-80
2022/06/12 05:03:42;;;;;;;5.90;5.40;;;;;;;16.88;100.00;63739.97;5028146;28;20194;-80
2022/06/12 05:06:09;;;;;;;6.35;5.78;;;;;;;16.82;100.00;63731.69;5033055;28;20225;-82
2022/06/12 05:08:36;;;;;;;5.47;5.07;;;;;;;16.83;100.00;63734.75;5034283;28;20538;-81
2022/06/12 05:11:04;;;;;;;5.97;5.38;;;;;;;16.97;100.00;63755.00;5028550;28;20217;-81
2022/06/12 05:13:31;;;;;;;6.75;6.07;;;;;;;17.08;100.00;63763.88;5029991;28;20510;-81
2022/06/12 05:15:59;;;;;;;6.28;5.78;;;;;;;17.06;100.00;63759.22;5028809;28;20559;-82
2022/06/12 05:18:26;;;;;;;6.30;5.70;;;;;;;17.09;100.00;63764.91;5016430;28;20261;-82
2022/06/12 05:20:54;;;;;;;6.28;5.60;;;;;;;17.10;100.00;63765.44;5010921;28;20554;-81
2022/06/12 05:23:21;;;;;;;6.65;6.15;;;;;;;17.19;100.00;63774.78;5027371;28;20469;-80
2022/06/12 05:25:49;;;;;;;5.97;5.57;;;;;;;17.31;100.00;63790.38;5026960;28;20272;-81
2022/06/12 05:28:19;;;;;;;6.85;5.40;;;;;;;17.45;100.00;63804.44;5009461;28;20230;-80
2022/06/12 05:30:47;;;;;;;6.18;5.78;;;;;;;17.55;100.00;63809.22;5020342;28;20225;-81
2022/06/12 05:33:14;;;;;;;5.95;5.45;;;;;;;17.67;100.00;63821.72;5028713;28;20244;-81
2022/06/12 05:35:41;;;;;;;4.97;4.60;;;;;;;17.76;100.00;63831.59;5026441;28;20237;-81
2022/06/12 05:38:11;;;;;;;6.00;5.38;;;;;;;17.93;100.00;63851.88;5027322;28;20226;-81
2022/06/12 05:40:40;;;;;;;5.22;4.68;;;;;;;17.99;100.00;63855.03;5028218;28;20218;-80
2022/06/12 05:43:08;;;;;;;5.18;4.78;;;;;;;18.07;100.00;63869.03;5028960;28;20388;-81
2022/06/12 05:45:36;;;;;;;5.97;5.47;;;;;;;18.06;100.00;63865.41;5028149;28;20281;-82
2022/06/12 05:48:08;;;;;;;5.55;5.22;;;;;;;17.89;100.00;63847.72;5031121;28;20190;-81
2022/06/12 05:50:38;;;;;;;5.22;4.82;;;;;;;18.02;100.00;63860.72;5033037;28;20224;-80
2022/06/12 05:53:05;;;;;;;5.60;5.20;;;;;;;17.95;100.00;63856.00;5032193;28;20194;-82
2022/06/12 05:55:32;;;;;;;5.85;5.32;;;;;;;17.76;100.00;63828.50;5014067;28;20219;-81
2022/06/12 05:57:59;;;;;;;5.68;4.97;;;;;;;17.55;100.00;63811.78;5023342;28;20422;-82
2022/06/12 06:00:29;;;;;;;5.30;4.90;;;;;;;17.71;100.00;63828.44;5028876;28;20683;-81
2022/06/12 06:02:58;;;;;;;5.25;4.88;;;;;;;17.84;100.00;63839.41;5026831;28;20210;-81
2022/06/12 06:05:25;;;;;;;4.80;4.50;;;;;;;17.90;100.00;63848.75;5027204;28;20237;-80
2022/06/12 06:07:52;;;;;;;5.43;4.93;;;;;;;17.92;100.00;63850.31;5025688;28;20190;-82
2022/06/12 06:10:24;;;;;;;5.38;4.97;;;;;;;18.03;100.00;63866.94;5027346;28;20581;-81
2022/06/12 06:12:52;;;;;;;5.07;4.70;;;;;;;18.10;100.00;63869.06;5015530;28;20222;-81
2022/06/12 06:15:20;;;;;;;5.72;5.13;;;;;;;17.93;100.00;63848.78;5029426;28;20464;-80
2022/06/12 06:17:49;;;;;;;5.40;5.00;;;;;;;18.03;100.00;63864.88;5027536;28;20227;-81
2022/06/12 06:20:22;;;;;;;5.35;4.90;;;;;;;17.79;100.00;63836.78;5018526;28;20218;-81
2022/06/12 06:22:49;;;;;;;6.95;5.55;;;;;;;17.86;100.00;63844.56;5013441;28;20199;-79
2022/06/12 06:25:16;;;;;;;9.70;5.68;;;;;;;17.71;100.00;63828.97;5029336;28;20214;-81
2022/06/12 06:27:43;;;;;;;5.93;5.47;;;;;;;17.70;100.00;63827.94;5021557;28;20237;-82
2022/06/12 06:30:12;;;;;;;6.57;6.07;;;;;;;17.82;100.00;63843.00;5025892;28;20277;-82
2022/06/12 06:32:39;;;;;;;6.72;6.22;;;;;;;17.91;100.00;63851.84;5026707;28;20217;-83
2022/06/12 06:35:08;;;;;;;6.47;6.00;;;;;;;17.85;100.00;63846.13;5025816;28;20218;-81
2022/06/12 06:37:36;;;;;;;7.60;7.00;;;;;;;17.52;100.00;63809.19;5025664;28;20233;-82
2022/06/12 06:40:04;;;;;;;7.00;6.50;;;;;;;17.39;100.00;63800.78;5027798;28;20222;-82
2022/06/12 06:42:31;;;;;;;8.23;6.90;;;;;;;17.50;100.00;63809.16;5028064;28;20209;-82
2022/06/12 06:47:45;;;;;;;7.80;7.07;;;;;;;17.65;100.00;63820.16;5017492;28;20217;-82
2022/06/12 06:50:17;;;;;;;7.53;6.88;;;;;;;17.67;100.00;63824.78;5021766;28;20241;-82
2022/06/12 06:52:45;;;;;;;7.18;6.65;;;;;;;17.85;100.00;63848.69;5022890;28;20233;-82
2022/06/12 06:55:13;;;;;;;7.40;6.57;;;;;;;17.98;100.00;63857.06;5028766;28;20218;-83
2022/06/12 06:57:43;;;;;;;7.05;6.45;;;;;;;18.08;100.00;63864.94;5029168;28;20226;-83
2022/06/12 07:00:14;;;;;;;8.60;7.85;;;;;;;17.98;100.00;63854.50;5027608;28;20221;-82
2022/06/12 07:02:42;;;;;;;7.82;6.57;;;;;;;18.19;100.00;63875.84;5029070;28;20196;-81
2022/06/12 07:05:10;;;;;;;8.07;7.38;;;;;;;18.26;100.00;63883.16;5028881;28;20273;-81
2022/06/12 07:07:37;;;;;;;7.20;6.70;;;;;;;18.29;100.00;63889.38;5022717;28;20269;-84
2022/06/12 07:10:09;;;;;;;6.95;6.40;;;;;;;18.35;100.00;63895.63;5015754;28;20218;-83
2022/06/12 07:12:36;;;;;;;6.95;6.45;;;;;;;18.29;100.00;63894.53;5022964;28;20265;-82
2022/06/12 07:15:03;;;;;;;7.78;7.07;;;;;;;18.49;100.00;63906.63;5029451;28;20234;-82
2022/06/12 07:17:31;;;;;;;7.55;6.30;;;;;;;18.61;100.00;63919.13;5024303;28;20223;-83
2022/06/12 07:19:57;;;;;;;6.82;6.30;;;;;;;18.68;100.00;63929.53;5027017;28;20248;-83
2022/06/12 07:22:24;;;;;;;6.47;5.90;;;;;;;18.59;100.00;63922.72;5034928;28;20208;-82
2022/06/12 07:24:51;;;;;;;5.95;5.53;;;;;;;18.70;100.00;63929.03;5033588;28;20214;-83
2022/06/12 07:27:20;;;;;;;6.03;5.53;;;;;;;18.77;100.00;63938.38;5033243;28;20222;-80
2022/06/12 07:29:47;;;;;;;5.30;5.00;;;;;;;18.62;100.00;63917.59;5030004;28;20281;-81
2022/06/12 07:32:32;;;;;;;5.10;4.82;;;;;;;18.80;100.00;63938.91;5035189;28;20545;-79
2022/06/12 07:35:03;;;;;;;5.40;5.00;;;;;;;18.82;100.00;63943.59;5027204;28;20232;-78
2022/06/12 07:37:42;;;;;;;5.93;5.18;;;;;;;18.78;100.00;63939.41;5011965;28;20223;-78
2022/06/12 07:40:16;;;;;;;5.38;4.93;;;;;;;18.86;100.00;63945.69;5023879;28;20233;-79
2022/06/12 07:42:44;;;;;;;6.15;5.15;;;;;;;18.81;100.00;63945.63;5030789;28;20451;-79
2022/06/12 07:45:12;;;;;;;4.80;4.50;;;;;;;18.72;100.00;63930.59;5033228;28;20218;-79
2022/06/12 07:47:39;;;;;;;5.15;4.85;;;;;;;18.59;100.00;63914.44;5028721;28;20204;-78
2022/06/12 07:50:07;;;;;;;5.45;5.03;;;;;;;18.47;100.00;63904.53;5031238;28;20217;-78
2022/06/12 07:52:34;;;;;;;6.10;5.60;;;;;;;18.50;100.00;63912.81;5029106;28;20222;-77
2022/06/12 07:55:01;;;;;;;5.57;5.10;;;;;;;18.41;100.00;63901.91;5031099;28;20249;-77
2022/06/12 07:57:28;;;;;;;5.78;5.30;;;;;;;18.42;100.00;63902.41;5029924;28;20186;-77
2022/06/12 07:59:56;;;;;;;5.88;5.47;;;;;;;18.40;100.00;63898.28;5028068;28;20491;-77
2022/06/12 08:02:23;;;;;;;8.25;5.15;;;;;;;18.39;100.00;63899.28;5026850;28;20226;-78
2022/06/12 08:04:50;;;;;;;5.20;4.90;;;;;;;18.41;100.00;63903.97;5028672;28;20262;-77
2022/06/12 08:07:17;;;;;;;5.63;5.22;;;;;;;18.43;100.00;63903.97;5030132;28;20197;-78
2022/06/12 08:09:44;;;;;;;7.40;5.50;;;;;;;18.50;100.00;63910.75;5028382;28;20239;-78
2022/06/12 08:12:12;;;;;;;5.95;5.35;;;;;;;18.45;100.00;63905.53;5032209;28;20194;-76
2022/06/12 08:14:39;;;;;;;5.68;5.28;;;;;;;18.39;100.00;63892.06;5034042;28;20222;-75
2022/06/12 08:17:07;;;;;;;6.30;5.80;;;;;;;18.39;100.00;63902.38;5031833;28;20198;-79
2022/06/12 08:22:18;;;;;;;7.25;5.85;;;;;;;18.59;100.00;63919.59;5029948;28;20208;-78
2022/06/12 08:24:45;;;;;;;5.10;4.60;;;;;;;18.46;100.00;63900.91;5027930;28;20289;-78
2022/06/12 08:27:13;;;;;;;5.88;5.38;;;;;;;18.45;100.00;63905.53;5031500;28;20269;-78
2022/06/12 08:29:42;;;;;;;5.78;5.47;;;;;;;18.50;100.00;63908.16;5029273;28;20234;-77
2022/06/12 08:32:14;;;;;;;6.20;5.80;;;;;;;18.55;100.00;63915.44;5030010;28;20206;-77
2022/06/12 08:34:43;;;;;;;5.53;5.03;;;;;;;18.23;100.00;63885.72;5032374;28;20252;-76
2022/06/12 08:37:13;;;;;;;6.30;5.75;;;;;;;18.19;100.00;63881.00;5029213;28;20198;-77
2022/06/12 08:39:41;;;;;;;6.03;5.53;;;;;;;18.12;100.00;63868.59;5028622;28;20222;-77
2022/06/12 08:42:13;;;;;;;6.28;5.80;;;;;;;18.13;100.00;63874.75;5031955;28;20522;-77
2022/06/12 08:44:49;;;;;;;5.78;5.38;;;;;;;18.25;100.00;63882.13;5027436;28;20519;-76
2022/06/12 08:47:26;;;;;;;5.95;5.45;;;;;;;18.32;100.00;63892.00;5021856;28;20249;-79
2022/06/12 08:49:59;;;;;;;5.80;5.35;;;;;;;18.38;100.00;63898.75;5029461;28;20228;-77
2022/06/12 08:52:32;;;;;;;6.75;6.13;;;;;;;18.36;100.00;63893.59;5024830;28;20269;-79
2022/06/12 08:55:05;;;;;;;6.10;5.60;;;;;;;18.33;100.00;63898.69;5027275;28;20230;-78
2022/06/12 08:57:49;;;;;;;6.18;5.35;;;;;;;18.56;100.00;63919.59;5016818;28;20191;-79
2022/06/12 09:00:20;;;;;;;8.55;5.70;;;;;;;18.76;100.00;63937.34;5033239;28;20218;-80
2022/06/12 09:02:50;;;;;;;6.57;6.07;;;;;;;19.00;100.00;63959.78;5031583;28;20206;-79
2022/06/12 09:05:20;;;;;;;6.93;6.32;;;;;;;19.07;100.00;63975.31;5027625;28;20218;-78
2022/06/12 09:07:52;;;;;;;5.38;5.05;;;;;;;19.12;100.00;63972.78;5033761;28;20205;-79
2022/06/12 09:10:29;;;;;;;5.35;4.95;;;;;;;19.14;100.00;63974.34;5029043;28;20269;-78
2022/06/12 09:13:10;;;;;;;5.95;5.55;;;;;;;19.02;100.00;63964.97;5025022;28;20221;-78
2022/06/12 09:15:42;;;;;;;5.10;4.80;;;;;;;19.22;100.00;63985.81;5026068;28;20231;-77
2022/06/12 09:18:23;;;;;;;4.57;4.28;;;;;;;19.25;100.00;63991.00;5019379;28;20228;-77
2022/06/12 09:21:03;;;;;;;5.55;5.07;;;;;;;19.21;100.00;63984.75;5024268;28;20290;-77
2022/06/12 09:23:38;;;;;;;5.40;5.00;;;;;;;19.25;100.00;63988.94;5021845;28;20269;-77
2022/06/12 09:26:17;;;;;;;7.38;5.13;;;;;;;19.23;100.00;63986.31;5024931;28;20268;-78
2022/06/12 09:29:02;;;;;;;4.53;4.32;;;;;;;19.24;100.00;63985.31;5023756;28;20212;-78
2022/06/12 09:31:35;;;;;;;4.45;4.05;;;;;;;19.37;100.00;64003.53;5023341;28;20201;-78
2022/06/12 09:34:15;;;;;;;4.40;4.20;;;;;;;19.47;100.00;64009.31;5018099;28;20207;-78
2022/06/12 09:37:01;;;;;;;4.70;4.30;;;;;;;19.48;100.00;64012.94;5014478;28;20198;-78
2022/06/12 09:39:42;;;;;;;4.80;4.40;;;;;;;19.42;100.00;64006.16;5024496;28;20341;-79
2022/06/12 09:42:18;;;;;;;4.20;4.00;;;;;;;19.51;100.00;64018.66;5026809;28;20186;-81
2022/06/12 09:44:52;;;;;;;4.93;4.57;;;;;;;19.64;100.00;64029.09;5015748;28;20237;-78
2022/06/12 09:47:30;;;;;;;5.10;4.60;;;;;;;19.55;100.00;64020.25;5032783;28;20244;-79
2022/06/12 09:50:05;;;;;;;5.70;5.28;;;;;;;19.54;100.00;64019.19;5042627;28;20222;-78
2022/06/12 09:53:05;;;;;;;4.93;4.53;;;;;;;19.42;100.00;64006.16;5011127;28;20202;-78
2022/06/12 09:55:38;;;;;;;4.93;4.63;;;;;;;19.16;100.00;63976.97;5010212;28;20222;-77
2022/06/12 09:58:12;;;;;;;5.05;4.65;;;;;;;18.95;100.00;63960.25;5007754;28;20201;-77
2022/06/12 10:00:43;;;;;;;5.80;5.40;;;;;;;18.66;100.00;63927.44;5006457;28;20225;-78
2022/06/12 10:03:18;;;;;;;5.25;4.85;;;;;;;18.42;100.00;63900.38;5006786;28;20191;-78
2022/06/12 10:05:55;;;;;;;6.18;5.68;;;;;;;18.41;100.00;63907.06;5005917;28;20246;-77
2022/06/12 10:08:28;;;;;;;6.53;5.93;;;;;;;18.32;100.00;63894.56;5005948;28;20483;-77
2022/06/12 10:11:00;;;;;;;5.82;5.43;;;;;;;18.24;100.00;63886.75;5016358;28;20391;-79
2022/06/12 10:13:33;;;;;;;5.70;5.15;;;;;;;18.20;100.00;63879.47;5025528;28;20220;-77
2022/06/12 10:16:03;;;;;;;6.38;5.88;;;;;;;18.21;100.00;63883.63;5027087;28;20273;-78
2022/06/12 10:18:43;;;;;;;7.00;5.00;;;;;;;18.18;100.00;63877.41;5027033;28;20229;-79
2022/06/12 10:21:17;;;;;;;5.70;5.28;;;;;;;18.18;100.00;63877.94;5028133;28;20220;-78
2022/06/12 10:23:44;;;;;;;5.72;5.32;;;;;;;18.17;100.00;63873.78;5028603;28;20364;-79
2022/06/12 10:26:18;;;;;;;5.43;4.93;;;;;;;18.19;100.00;63876.38;5029643;28;20237;-79
2022/06/12 10:28:45;;;;;;;5.45;4.93;;;;;;;18.25;100.00;63882.63;5028470;28;20200;-78
2022/06/12 10:31:20;;;;;;;5.40;4.90;;;;;;;18.18;100.00;63879.97;5029229;28;20249;-78
2022/06/12 10:33:51;;;;;;;5.10;4.80;;;;;;;18.27;100.00;63886.78;5029008;28;20225;-78
2022/06/12 10:36:24;;;;;;;5.72;4.43;;;;;;;18.38;100.00;63900.81;5029206;28;20225;-78
2022/06/12 10:38:51;;;;;;;4.57;4.28;;;;;;;18.47;100.00;63904.53;5028178;28;20234;-80
2022/06/12 10:41:24;;;;;;;4.82;4.30;;;;;;;18.64;100.00;63924.84;5025631;28;20381;-78
2022/06/12 10:43:53;;;;;;;4.72;4.40;;;;;;;18.67;100.00;63927.97;5026158;28;20206;-79
2022/06/12 10:46:24;;;;;;;4.28;4.03;;;;;;;18.79;100.00;63937.88;5030236;28;20238;-78
2022/06/12 10:49:02;;;;;;;6.75;4.47;;;;;;;19.00;100.00;63960.28;5030073;28;20415;-79
2022/06/12 10:51:36;;;;;;;5.13;4.72;;;;;;;19.13;100.00;63975.91;5031986;28;20416;-78
2022/06/12 10:54:12;;;;;;;4.35;4.05;;;;;;;19.37;100.00;64003.53;5027920;28;20209;-79
2022/06/12 10:56:46;;;;;;;4.53;4.22;;;;;;;19.73;100.00;64037.97;5028028;28;20190;-78
2022/06/12 10:59:36;;;;;;;4.25;4.05;;;;;;;19.90;100.00;64056.22;5025517;28;20233;-78
2022/06/12 11:02:28;;;;;;;4.35;4.05;;;;;;;20.11;100.00;64080.19;5022939;28;20214;-79
2022/06/12 11:05:08;;;;;;;4.22;3.80;;;;;;;20.31;100.00;64099.03;5026545;28;20228;-79
2022/06/12 11:07:41;;;;;;;5.30;3.85;;;;;;;20.58;100.00;64127.22;5026482;28;20186;-79
2022/06/12 11:10:22;;;;;;;4.15;3.75;;;;;;;21.15;100.00;64186.22;5026149;28;20229;-79
2022/06/12 11:13:04;;;;;;;4.32;4.10;;;;;;;21.24;100.00;64198.22;5025997;28;20190;-79
2022/06/12 11:15:51;;;;;;;4.18;3.88;;;;;;;20.88;100.00;64160.06;5027491;28;20248;-79
2022/06/12 11:18:29;;;;;;;3.63;3.42;;;;;;;20.80;99.77;64149.66;5027045;28;20206;-79
2022/06/12 11:21:08;;;;;;;4.10;3.80;;;;;;;20.90;100.00;64159.56;5028739;28;20240;-79
2022/06/12 11:23:55;;;;;;;8.40;4.15;;;;;;;21.16;100.00;64189.31;5031977;28;20265;-79
2022/06/12 11:26:32;;;;;;;4.22;4.00;;;;;;;21.25;100.00;64193.53;5031155;28;20434;-79
2022/06/12 11:29:11;;;;;;;4.10;3.80;;;;;;;21.40;100.00;64214.38;5029640;28;20197;-80
2022/06/12 11:31:53;;;;;;;4.63;3.78;;;;;;;21.79;96.50;64257.75;5026996;28;20194;-77
2022/06/12 11:34:35;;;;;;;3.10;2.90;;;;;;;21.20;95.40;64193.50;5026308;28;20214;-79
2022/06/12 11:37:25;;;;;;;3.28;3.13;;;;;;;21.43;94.11;64214.94;5026788;28;20186;-80
2022/06/12 11:40:03;;;;;;;3.75;3.55;;;;;;;21.85;95.50;64258.31;5026280;28;20238;-80
2022/06/12 11:42:47;;;;;;;3.63;3.42;;;;;;;21.89;95.75;64263.00;5025816;28;20198;-79
2022/06/12 11:45:24;;;;;;;4.32;4.00;;;;;;;22.16;95.09;64291.22;5026227;28;20238;-79
2022/06/12 11:48:08;;;;;;;4.47;3.88;;;;;;;22.13;92.33;64288.09;5029038;28;20190;-79
2022/06/12 11:50:43;;;;;;;9.27;3.55;;;;;;;21.45;95.31;64219.63;5027330;28;20249;-80
2022/06/12 11:53:28;;;;;;;3.85;3.63;;;;;;;21.77;94.32;64247.88;5028760;28;20194;-79
2022/06/12 11:56:04;;;;;;;3.55;3.35;;;;;;;22.21;92.10;64295.94;5032727;28;20226;-79
2022/06/12 11:58:47;;;;;;;3.03;2.83;;;;;;;22.66;88.74;64340.38;5027290;28;20198;-81
2022/06/12 12:01:23;;;;;;;3.63;3.33;;;;;;;22.53;86.69;64329.91;5026846;28;20186;-80
2022/06/12 12:04:29;;;;;;;3.65;3.45;;;;;;;22.48;82.52;64326.75;5027728;28;20206;-79
2022/06/12 12:07:19;;;;;;;3.67;3.33;;;;;;;22.13;91.32;64284.97;5030105;28;20285;-79